createdAt,value
2023-01-10T00:03:38.884Z,1.30
2023-01-10T00:18:30.550Z,1.68
2023-01-10T00:33:20.929Z,1.14
2023-01-10T00:48:11.169Z,1.54
2023-01-10T01:03:00.581Z,0.96
2023-01-10T01:17:51.113Z,1.90
2023-01-10T01:32:41.612Z,1.08
2023-01-10T01:47:32.008Z,2.44
2023-01-10T02:02:25.970Z,1.04
2023-01-10T02:17:19.918Z,2.13
2023-01-10T02:32:16.251Z,2.16
2023-01-10T02:47:10.689Z,1.09
2023-01-10T03:02:12.982Z,1.13
2023-01-10T03:17:07.302Z,1.61
2023-01-10T03:31:58.360Z,2.09
2023-01-10T03:46:53.695Z,3.41
2023-01-10T04:01:48.403Z,5.96
2023-01-10T04:16:39.289Z,5.70
2023-01-10T04:31:30.026Z,4.41
2023-01-10T04:46:20.948Z,8.99
2023-01-10T05:01:11.539Z,12.70
2023-01-10T05:16:01.873Z,9.88
2023-01-10T05:30:52.164Z,9.86
2023-01-10T05:45:42.874Z,7.08
2023-01-10T06:00:36.933Z,8.78
2023-01-10T06:15:29.145Z,9.20
2023-01-10T06:30:20.947Z,9.99
2023-01-10T06:45:13.405Z,7.03
2023-01-10T07:00:07.066Z,9.13
2023-01-10T07:14:59.805Z,9.82
2023-01-10T07:29:50.472Z,10.61
2023-01-10T07:44:41.111Z,9.40
2023-01-10T07:59:28.343Z,10.42
2023-01-10T08:14:19.441Z,10.58
2023-01-10T08:29:09.660Z,10.37
2023-01-10T08:44:01.218Z,7.98
2023-01-10T08:58:52.132Z,9.91
2023-01-10T09:13:43.118Z,9.53
2023-01-10T09:28:33.070Z,6.78
2023-01-10T09:43:29.032Z,6.26
2023-01-10T09:58:24.123Z,4.51
2023-01-10T10:13:33.313Z,7.50
2023-01-10T10:28:46.610Z,4.72
2023-01-10T10:43:32.244Z,7.07
2023-01-10T10:58:22.829Z,6.51
2023-01-10T11:13:34.726Z,5.20
2023-01-10T11:28:31.854Z,5.19
2023-01-10T11:43:28.682Z,5.90
2023-01-10T11:58:23.820Z,5.70
2023-01-10T12:28:05.380Z,5.84
2023-01-10T12:43:18.179Z,5.92
2023-01-10T12:58:17.769Z,4.69
2023-01-10T13:13:34.369Z,5.09
2023-01-10T13:28:30.722Z,4.23
2023-01-10T13:43:30.834Z,4.09
2023-01-10T13:58:26.077Z,4.43
2023-01-10T14:13:17.193Z,5.62
2023-01-10T14:28:07.667Z,4.21
2023-01-10T14:42:59.630Z,2.83
2023-01-10T14:57:57.884Z,3.83
2023-01-10T15:12:52.948Z,4.94
2023-01-10T15:27:43.621Z,5.10
2023-01-10T15:42:34.988Z,5.09
2023-01-10T15:57:29.797Z,2.58
2023-01-10T16:12:54.869Z,4.80
2023-01-10T16:27:54.118Z,4.57
2023-01-10T16:43:04.826Z,4.09
2023-01-10T16:58:01.306Z,4.91
2023-01-10T17:12:52.245Z,5.69
2023-01-10T17:27:42.661Z,7.17
2023-01-10T17:42:32.308Z,4.97
2023-01-10T17:57:22.129Z,5.54
2023-01-10T18:12:12.642Z,5.56
2023-01-10T18:27:03.305Z,6.93
2023-01-10T18:41:53.548Z,4.52
2023-01-10T18:56:45.166Z,4.10
2023-01-10T19:11:35.110Z,5.59
2023-01-10T19:26:25.999Z,4.72
2023-01-10T19:41:16.512Z,4.56
2023-01-10T19:56:07.102Z,3.01
2023-01-10T20:11:07.105Z,3.63
2023-01-10T20:25:59.448Z,3.41
2023-01-10T20:40:49.992Z,2.76
2023-01-10T20:55:40.322Z,2.82
2023-01-10T21:10:30.372Z,2.61
2023-01-10T21:25:20.340Z,2.28
2023-01-10T21:40:11.001Z,6.29
2023-01-10T21:55:01.667Z,3.36
2023-01-10T22:09:52.804Z,1.94
2023-01-10T22:24:44.451Z,3.61
2023-01-10T22:54:41.536Z,3.83
2023-01-10T23:09:41.444Z,3.43
2023-01-10T23:24:30.550Z,6.33
2023-01-10T23:39:24.483Z,2.47
2023-01-10T23:54:14.489Z,2.04
